Time;durP1;ratioP1;P1;durP2;ratioP2;P2;SDS_P1;SDS_P2;PMS_P1;PMS_P2;Temp;Humidity;BMP_temperature;BMP_pressure;BME280_temperature;BME280_humidity;BME280_pressure;Samples;Min_cycle;Max_cycle;Signal;HPM_P1;HPM_P2
2023/07/17 00:02:17;;;;;;;3.17;2.33;;;;;;;20.17;100.00;100371.81;5034811;28;20052;-90
2023/07/17 00:04:43;;;;;;;5.00;2.60;;;;;;;20.13;100.00;100369.25;5035125;28;20352;-87
2023/07/17 00:07:08;;;;;;;3.78;2.53;;;;;;;20.15;100.00;100378.16;5034940;28;20048;-87
2023/07/17 00:09:34;;;;;;;4.28;2.30;;;;;;;20.18;100.00;100377.06;5034703;28;20017;-88
2023/07/17 00:12:01;;;;;;;4.18;2.45;;;;;;;20.17;100.00;100369.69;5033859;28;20119;-89
2023/07/17 00:14:29;;;;;;;3.13;2.20;;;;;;;20.18;100.00;100379.19;5034005;28;20108;-89
2023/07/17 00:16:54;;;;;;;5.15;2.70;;;;;;;20.17;100.00;100386.31;5033138;28;20033;-89
2023/07/17 00:19:22;;;;;;;4.93;2.22;;;;;;;20.17;100.00;100392.91;5034339;28;20390;-91
2023/07/17 00:21:48;;;;;;;5.88;2.60;;;;;;;20.15;100.00;100386.88;5016653;28;20025;-88
2023/07/17 00:24:13;;;;;;;8.70;2.50;;;;;;;20.15;100.00;100363.66;5034624;28;20028;-89
2023/07/17 00:26:39;;;;;;;2.75;2.15;;;;;;;20.15;100.00;100343.34;5034827;28;20025;-89
2023/07/17 00:29:25;;;;;;;3.45;2.42;;;;;;;20.19;100.00;100348.81;5033583;28;20128;-89
2023/07/17 00:31:52;;;;;;;5.93;2.20;;;;;;;20.15;100.00;100363.66;5033129;28;20025;-88
2023/07/17 00:34:19;;;;;;;7.57;2.50;;;;;;;20.12;100.00;100366.91;5034137;28;20057;-88
2023/07/17 00:36:45;;;;;;;5.95;2.78;;;;;;;20.06;100.00;100369.91;5034088;28;20025;-87
2023/07/17 00:39:11;;;;;;;3.50;2.50;;;;;;;20.02;100.00;100372.38;5032786;28;20552;-89
2023/07/17 00:41:38;;;;;;;4.35;2.55;;;;;;;19.96;100.00;100371.69;5032785;28;20394;-90
2023/07/17 00:44:03;;;;;;;2.88;2.38;;;;;;;19.84;100.00;100368.22;5034020;28;20499;-89
2023/07/17 00:46:44;;;;;;;3.38;2.45;;;;;;;19.89;100.00;100381.84;5016496;28;20029;-88
2023/07/17 00:49:11;;;;;;;3.10;2.80;;;;;;;19.83;100.00;100386.94;5033073;28;20037;-89
2023/07/17 00:51:38;;;;;;;3.65;2.20;;;;;;;19.80;100.00;100390.19;5016800;28;20046;-88
2023/07/17 00:54:06;;;;;;;4.43;2.50;;;;;;;19.79;100.00;100394.44;5016523;28;20033;-88
2023/07/17 00:56:36;;;;;;;3.90;2.80;;;;;;;19.78;100.00;100389.94;4999915;28;20047;-90
2023/07/17 00:59:01;;;;;;;4.20;2.85;;;;;;;19.76;100.00;100381.81;5033018;28;20033;-89
2023/07/17 01:01:28;;;;;;;5.15;2.80;;;;;;;19.74;100.00;100396.09;4999646;28;20040;-89
2023/07/17 01:03:55;;;;;;;4.53;2.88;;;;;;;19.75;100.00;100391.06;5033704;28;20055;-88
2023/07/17 01:06:23;;;;;;;3.95;3.20;;;;;;;19.74;100.00;100407.69;5032616;28;20044;-89
2023/07/17 01:08:49;;;;;;;3.50;2.55;;;;;;;19.70;100.00;100420.97;5032692;28;20497;-89
2023/07/17 01:11:17;;;;;;;6.13;2.83;;;;;;;19.61;100.00;100404.75;5032892;28;20038;-88
2023/07/17 01:13:57;;;;;;;3.65;3.22;;;;;;;19.61;100.00;100412.69;5032651;28;20018;-88
2023/07/17 01:16:24;;;;;;;3.92;3.33;;;;;;;19.59;100.00;100421.16;5034294;28;20057;-89
2023/07/17 01:18:50;;;;;;;6.22;3.17;;;;;;;19.57;100.00;100430.38;5032621;28;20048;-89
2023/07/17 01:21:20;;;;;;;4.03;3.08;;;;;;;19.53;100.00;100422.03;5033388;28;20497;-88
2023/07/17 01:23:47;;;;;;;4.88;3.55;;;;;;;19.52;100.00;100414.66;5033529;28;20033;-88
2023/07/17 01:26:14;;;;;;;5.45;3.63;;;;;;;19.49;100.00;100429.47;5035419;28;20029;-87
2023/07/17 01:28:41;;;;;;;6.35;3.70;;;;;;;19.47;100.00;100435.81;5020281;28;20057;-87
2023/07/17 01:31:06;;;;;;;4.75;2.80;;;;;;;19.40;100.00;100395.91;5037195;28;20032;-87
2023/07/17 01:33:32;;;;;;;5.43;3.30;;;;;;;19.45;100.00;100411.63;5037801;28;20048;-87
2023/07/17 01:35:59;;;;;;;5.88;3.35;;;;;;;19.45;100.00;100423.22;5037704;28;20032;-88
2023/07/17 01:38:24;;;;;;;4.03;2.78;;;;;;;19.41;100.00;100423.53;5036123;28;20049;-88
2023/07/17 01:40:51;;;;;;;5.07;3.42;;;;;;;19.43;100.00;100425.88;5019588;28;20379;-87
2023/07/17 01:43:18;;;;;;;5.20;3.05;;;;;;;19.47;100.00;100437.94;5037714;28;20018;-88
2023/07/17 01:45:44;;;;;;;4.45;2.90;;;;;;;19.48;100.00;100456.91;5037307;28;20490;-88
2023/07/17 01:48:13;;;;;;;3.80;3.10;;;;;;;19.42;100.00;100453.31;5019651;28;20141;-88
2023/07/17 01:50:44;;;;;;;6.35;3.10;;;;;;;19.38;100.00;100453.63;5037223;28;20032;-87
2023/07/17 01:53:10;;;;;;;4.75;2.90;;;;;;;19.29;100.00;100462.75;5037102;28;20029;-88
2023/07/17 01:55:42;;;;;;;4.50;3.10;;;;;;;19.27;100.00;100479.88;5037069;28;20037;-88
2023/07/17 01:58:10;;;;;;;4.35;2.95;;;;;;;19.23;100.00;100478.63;5035710;28;20060;-88
2023/07/17 02:00:36;;;;;;;4.68;2.80;;;;;;;19.23;100.00;100484.44;5035552;28;20029;-88
2023/07/17 02:03:02;;;;;;;6.50;3.47;;;;;;;19.23;100.00;100485.22;5035336;28;20051;-89
2023/07/17 02:05:30;;;;;;;4.43;2.83;;;;;;;19.23;100.00;100476.53;5036942;28;20104;-89
2023/07/17 02:07:58;;;;;;;5.30;2.88;;;;;;;19.23;100.00;100484.44;5035655;28;20025;-88
2023/07/17 02:10:24;;;;;;;6.78;4.00;;;;;;;19.21;100.00;100490.81;5019251;28;20152;-88
2023/07/17 02:12:51;;;;;;;5.07;2.72;;;;;;;19.18;100.00;100483.19;5036674;28;20471;-88
2023/07/17 02:15:17;;;;;;;5.72;2.88;;;;;;;19.19;100.00;100486.88;5036924;28;20404;-89
2023/07/17 02:17:43;;;;;;;4.38;3.08;;;;;;;19.18;100.00;100480.28;5033603;28;20030;-89
2023/07/17 02:20:13;;;;;;;5.53;3.08;;;;;;;19.21;100.00;100490.81;5037036;28;20076;-88
2023/07/17 02:22:39;;;;;;;7.78;3.33;;;;;;;19.23;100.00;100507.63;5036697;28;20033;-88
2023/07/17 02:25:05;;;;;;;4.15;3.53;;;;;;;19.24;100.00;100520.78;5037515;28;20517;-88
2023/07/17 02:27:32;;;;;;;4.65;3.22;;;;;;;19.22;100.00;100529.22;5023518;28;20029;-88
2023/07/17 02:29:59;;;;;;;4.38;3.35;;;;;;;19.11;100.00;100521.47;5055863;28;20037;-86
2023/07/17 02:32:28;;;;;;;5.78;3.40;;;;;;;19.06;100.00;100517.31;5060301;28;20077;-86
2023/07/17 02:34:55;;;;;;;4.45;3.30;;;;;;;19.07;100.00;100526.75;5050284;28;20482;-88
2023/07/17 02:37:29;;;;;;;6.47;3.15;;;;;;;19.08;100.00;100525.44;5030599;28;20041;-88
2023/07/17 02:39:56;;;;;;;6.80;3.47;;;;;;;19.07;100.00;100523.88;5036914;28;20100;-89
2023/07/17 02:42:21;;;;;;;4.18;3.22;;;;;;;19.02;100.00;100534.19;5036222;28;20463;-89
2023/07/17 02:44:47;;;;;;;6.50;3.70;;;;;;;19.03;100.00;100547.38;5036296;28;20032;-89
2023/07/17 02:47:13;;;;;;;6.38;3.25;;;;;;;18.98;100.00;100550.31;5034992;28;20029;-88
2023/07/17 02:49:40;;;;;;;6.53;4.20;;;;;;;18.99;100.00;100567.16;5051598;28;20021;-88
2023/07/17 02:52:08;;;;;;;5.18;3.88;;;;;;;18.94;100.00;100567.22;5036309;28;20048;-88
2023/07/17 02:54:36;;;;;;;5.07;3.33;;;;;;;18.95;100.00;100563.00;5036602;28;20056;-88
2023/07/17 02:57:04;;;;;;;6.15;3.60;;;;;;;18.89;100.00;100574.66;5034913;28;20481;-89
2023/07/17 02:59:30;;;;;;;6.13;3.70;;;;;;;18.78;100.00;100559.53;5036228;28;20374;-89
2023/07/17 03:01:56;;;;;;;7.90;3.80;;;;;;;18.82;100.00;100586.09;5035641;28;20026;-89
2023/07/17 03:04:25;;;;;;;4.88;3.45;;;;;;;18.81;100.00;100575.81;5035235;28;20037;-89
2023/07/17 03:06:51;;;;;;;8.38;3.85;;;;;;;18.77;100.00;100558.75;5043994;28;20017;-88
2023/07/17 03:09:17;;;;;;;10.15;3.95;;;;;;;18.78;100.00;100568.22;5059720;28;20013;-87
2023/07/17 03:11:44;;;;;;;5.13;3.60;;;;;;;18.79;100.00;100567.69;5060191;28;20052;-88
2023/07/17 03:14:09;;;;;;;5.22;3.53;;;;;;;18.78;100.00;100559.53;5060435;28;20029;-87
2023/07/17 03:16:35;;;;;;;8.40;3.67;;;;;;;18.80;100.00;100548.97;5059497;28;20009;-88
2023/07/17 03:19:01;;;;;;;9.10;3.75;;;;;;;18.84;100.00;100534.97;5043223;28;20038;-87
2023/07/17 03:21:27;;;;;;;8.80;3.67;;;;;;;18.87;100.00;100528.06;5059593;28;20037;-86
2023/07/17 03:23:53;;;;;;;10.35;4.10;;;;;;;18.86;100.00;100517.06;5039548;28;20032;-87
2023/07/17 03:26:18;;;;;;;5.95;3.33;;;;;;;18.87;100.00;100513.59;5035306;28;20037;-89
2023/07/17 03:28:45;;;;;;;7.20;4.03;;;;;;;18.89;100.00;100505.16;5018654;28;20032;-88
2023/07/17 03:31:10;;;;;;;8.98;3.60;;;;;;;18.84;100.00;100490.75;5035679;28;20025;-87
2023/07/17 03:33:37;;;;;;;7.53;3.50;;;;;;;18.95;100.00;100507.97;5036143;28;20486;-88
2023/07/17 03:36:04;;;;;;;6.85;3.17;;;;;;;18.93;100.00;100490.34;5051193;28;20478;-88
2023/07/17 03:38:30;;;;;;;6.20;3.38;;;;;;;18.90;100.00;100500.94;5035443;28;20037;-88
2023/07/17 03:40:57;;;;;;;11.25;3.90;;;;;;;18.89;100.00;100492.78;5035274;28;20030;-88
2023/07/17 03:43:24;;;;;;;7.22;3.95;;;;;;;18.90;100.00;100485.66;5035386;28;20033;-88
2023/07/17 03:45:51;;;;;;;6.60;3.65;;;;;;;18.92;100.00;100492.47;5034916;28;20479;-87
2023/07/17 03:48:31;;;;;;;4.45;3.83;;;;;;;18.95;100.00;100490.59;5017273;28;20091;-88
2023/07/17 03:50:57;;;;;;;5.70;3.42;;;;;;;18.97;100.00;100477.13;5034075;28;20108;-87
2023/07/17 03:53:23;;;;;;;6.10;3.83;;;;;;;18.99;100.00;100477.38;5016783;28;20160;-86
2023/07/17 03:55:50;;;;;;;7.93;4.20;;;;;;;18.99;100.00;100470.78;5034176;28;20041;-89
2023/07/17 03:58:17;;;;;;;5.57;3.75;;;;;;;19.02;100.00;100472.59;5032884;28;20548;-89
2023/07/17 04:00:43;;;;;;;5.32;3.33;;;;;;;19.04;100.00;100472.84;5034652;28;20482;-89
2023/07/17 04:03:09;;;;;;;12.25;4.15;;;;;;;18.96;100.00;100458.22;5034936;28;20033;-88
2023/07/17 04:05:37;;;;;;;6.38;3.92;;;;;;;19.06;100.00;100467.28;5016810;28;20028;-89
2023/07/17 04:08:03;;;;;;;6.22;4.28;;;;;;;19.11;100.00;100464.31;5034694;28;20048;-89
2023/07/17 04:10:30;;;;;;;6.22;3.58;;;;;;;19.20;100.00;100471.06;5032862;28;20398;-89
2023/07/17 04:12:56;;;;;;;9.85;4.10;;;;;;;19.26;100.00;100460.97;5034488;28;20052;-88
2023/07/17 04:15:23;;;;;;;5.32;3.75;;;;;;;19.32;100.00;100466.63;5034469;28;20037;-89
2023/07/17 04:17:50;;;;;;;10.07;4.45;;;;;;;19.33;100.00;100456.63;5034271;28;20021;-88
2023/07/17 04:20:16;;;;;;;9.25;4.15;;;;;;;19.32;100.00;100449.25;5033381;28;20422;-86
2023/07/17 04:22:42;;;;;;;10.35;4.57;;;;;;;19.29;100.00;100442.47;5034736;28;20022;-88
2023/07/17 04:25:08;;;;;;;6.70;3.95;;;;;;;19.36;100.00;100459.19;5034589;28;20029;-88
2023/07/17 04:27:33;;;;;;;11.13;4.30;;;;;;;19.36;100.00;100443.94;5033364;28;20025;-88
2023/07/17 04:30:00;;;;;;;6.10;4.15;;;;;;;19.37;100.00;100452.06;5049872;28;20108;-88
2023/07/17 04:32:26;;;;;;;8.43;3.88;;;;;;;19.35;100.00;100460.53;5033077;28;20104;-89
2023/07/17 04:34:54;;;;;;;8.30;4.03;;;;;;;19.31;100.00;100459.31;5031677;28;20375;-89
2023/07/17 04:37:20;;;;;;;8.45;3.90;;;;;;;19.34;100.00;100467.66;5033098;28;20489;-90
2023/07/17 04:39:45;;;;;;;8.27;4.43;;;;;;;19.37;100.00;100478.16;5033502;28;20463;-87
2023/07/17 04:42:11;;;;;;;8.95;4.03;;;;;;;19.45;100.00;100478.31;5034349;28;20116;-88
2023/07/17 04:44:38;;;;;;;12.32;4.38;;;;;;;19.50;100.00;100480.34;5033536;28;20029;-89
2023/07/17 04:47:04;;;;;;;7.90;4.07;;;;;;;19.62;100.00;100495.41;5034359;28;20030;-87
2023/07/17 04:49:32;;;;;;;10.52;4.03;;;;;;;19.65;100.00;100491.44;5033988;28;20029;-88
2023/07/17 04:51:57;;;;;;;7.22;3.92;;;;;;;19.69;100.00;100501.38;5032620;28;20489;-88
2023/07/17 04:54:23;;;;;;;10.88;4.55;;;;;;;19.76;100.00;100512.31;5034185;28;20017;-89
2023/07/17 04:56:49;;;;;;;7.60;4.38;;;;;;;19.86;100.00;100513.44;5034069;28;20029;-88
2023/07/17 04:59:17;;;;;;;6.35;3.72;;;;;;;19.89;100.00;100518.16;5033277;28;20017;-89
2023/07/17 05:01:43;;;;;;;11.95;4.75;;;;;;;19.94;100.00;100522.34;5032851;28;20026;-89
2023/07/17 05:04:09;;;;;;;8.45;4.18;;;;;;;20.02;100.00;100526.13;5035117;28;20529;-91
2023/07/17 05:06:34;;;;;;;5.50;4.35;;;;;;;20.14;100.00;100520.94;5034777;28;20025;-89
2023/07/17 05:09:02;;;;;;;6.10;4.50;;;;;;;20.23;100.00;100520.50;5036322;28;20025;-88
2023/07/17 05:11:27;;;;;;;8.63;4.07;;;;;;;20.33;100.00;100522.41;5034188;28;20045;-88
2023/07/17 05:13:55;;;;;;;9.90;4.53;;;;;;;20.39;100.00;100528.91;5035113;28;20049;-89
2023/07/17 05:16:23;;;;;;;7.38;3.35;;;;;;;20.46;100.00;100515.81;5034303;28;20065;-88
2023/07/17 05:18:49;;;;;;;10.57;4.20;;;;;;;20.60;100.00;100531.13;5034405;28;20025;-89
2023/07/17 05:21:15;;;;;;;9.27;4.35;;;;;;;20.68;100.00;100527.00;5034369;28;20026;-89
2023/07/17 05:23:41;;;;;;;14.95;4.38;;;;;;;20.73;100.00;100514.53;5033116;28;20044;-88
2023/07/17 05:26:06;;;;;;;10.65;4.38;;;;;;;20.89;100.00;100521.34;5034694;28;20041;-88
2023/07/17 05:28:33;;;;;;;11.20;4.05;;;;;;;20.97;100.00;100525.13;5033130;28;20053;-88
2023/07/17 05:30:58;;;;;;;8.07;4.40;;;;;;;21.03;100.00;100522.88;5033435;28;20033;-87
2023/07/17 05:33:25;;;;;;;8.93;3.80;;;;;;;21.18;100.00;100514.34;5037189;28;20044;-88
2023/07/17 05:35:51;;;;;;;6.25;3.88;;;;;;;21.27;100.00;100524.72;5027207;28;20030;-89
2023/07/17 05:38:17;;;;;;;8.50;4.05;;;;;;;21.34;100.00;100518.19;5050966;28;20044;-88
2023/07/17 05:40:44;;;;;;;9.05;4.05;;;;;;;21.39;100.00;100516.50;5055714;28;20041;-87
2023/07/17 05:43:11;;;;;;;9.95;4.00;;;;;;;21.38;100.00;100517.88;5047449;28;20025;-89
2023/07/17 05:45:37;;;;;;;8.93;3.38;;;;;;;21.50;100.00;100519.19;5039315;28;20021;-91
2023/07/17 05:48:02;;;;;;;8.43;4.03;;;;;;;21.58;100.00;100511.34;5036105;28;20043;-89
2023/07/17 05:50:29;;;;;;;6.57;3.72;;;;;;;21.72;100.00;100509.16;5034485;28;20366;-88
2023/07/17 05:52:56;;;;;;;12.77;3.70;;;;;;;21.78;100.00;100504.72;5016199;28;20061;-88
2023/07/17 05:55:22;;;;;;;5.75;3.47;;;;;;;21.83;100.00;100508.88;5034177;28;20091;-90
2023/07/17 05:57:48;;;;;;;9.60;3.65;;;;;;;21.92;100.00;100505.47;5033675;28;20065;-88
2023/07/17 06:00:14;;;;;;;10.40;3.83;;;;;;;21.94;100.00;100479.47;5033552;28;20478;-88
2023/07/17 06:02:43;;;;;;;5.40;3.00;;;;;;;22.19;100.00;100497.34;5033865;28;20021;-88
2023/07/17 06:05:09;;;;;;;9.02;3.50;;;;;;;22.36;100.00;100483.13;5033669;28;20107;-89
2023/07/17 06:07:37;;;;;;;4.30;3.28;;;;;;;22.86;100.00;100484.59;5032074;28;20029;-87
2023/07/17 06:10:04;;;;;;;6.80;3.08;;;;;;;23.59;100.00;100472.25;5033020;28;20025;-88
2023/07/17 06:12:29;;;;;;;10.75;3.55;;;;;;;24.24;100.00;100466.06;5037161;28;20052;-86
2023/07/17 06:14:56;;;;;;;7.55;2.42;;;;;;;25.03;100.00;100477.19;5036653;28;20435;-88
2023/07/17 06:17:22;;;;;;;9.88;3.20;;;;;;;26.12;100.00;100469.47;5036562;28;20064;-88
2023/07/17 06:19:48;;;;;;;8.90;2.58;;;;;;;27.48;100.00;100470.09;5036588;28;20115;-88
2023/07/17 06:22:15;;;;;;;4.80;2.67;;;;;;;28.60;100.00;100441.59;5037447;28;20104;-87
2023/07/17 06:24:41;;;;;;;5.68;2.58;;;;;;;29.26;100.00;100442.97;5036692;28;20083;-86
2023/07/17 06:27:06;;;;;;;10.25;2.70;;;;;;;29.80;100.00;100438.78;5019312;28;20030;-88
2023/07/17 06:29:32;;;;;;;11.02;3.03;;;;;;;30.40;100.00;100433.53;5035580;28;20458;-86
2023/07/17 06:31:57;;;;;;;9.13;2.90;;;;;;;31.18;100.00;100455.91;5035185;28;20025;-87
2023/07/17 06:34:23;;;;;;;12.23;3.60;;;;;;;31.82;99.99;100453.50;5036860;28;20076;-89
2023/07/17 06:36:49;;;;;;;6.15;2.60;;;;;;;31.98;95.76;100453.00;5036928;28;20068;-87
2023/07/17 06:39:17;;;;;;;7.10;2.90;;;;;;;31.81;94.68;100436.41;5036432;28;20124;-87
2023/07/17 06:41:44;;;;;;;3.83;2.42;;;;;;;31.68;98.43;100434.84;5035248;28;20032;-88
2023/07/17 06:44:10;;;;;;;9.45;3.00;;;;;;;31.65;98.39;100429.44;5036232;28;20041;-87
2023/07/17 06:46:38;;;;;;;4.85;2.67;;;;;;;31.70;98.70;100432.00;5036356;28;20061;-86
2023/07/17 06:49:04;;;;;;;6.95;2.28;;;;;;;32.01;99.87;100419.16;5036027;28;20025;-85
2023/07/17 06:51:31;;;;;;;6.03;2.85;;;;;;;32.73;91.88;100428.88;5035577;28;20053;-86
2023/07/17 06:53:58;;;;;;;5.85;2.35;;;;;;;33.62;87.94;100439.25;5036194;28;20080;-85
2023/07/17 06:56:32;;;;;;;9.05;3.05;;;;;;;34.72;65.95;100449.78;5036514;28;20025;-86
2023/07/17 06:59:00;;;;;;;5.45;2.03;;;;;;;35.47;70.97;100448.44;5036022;28;20109;-86
2023/07/17 07:01:27;;;;;;;4.80;2.30;;;;;;;36.15;68.27;100450.22;5036210;28;20021;-86
2023/07/17 07:03:52;;;;;;;5.65;2.92;;;;;;;36.80;62.54;100450.19;5035720;28;20018;-86
2023/07/17 07:06:18;;;;;;;6.35;2.38;;;;;;;37.42;56.01;100451.41;5035732;28;20045;-86
2023/07/17 07:08:47;;;;;;;13.73;2.50;;;;;;;37.86;46.90;100447.25;5035503;28;20030;-86
2023/07/17 07:11:14;;;;;;;5.57;2.08;;;;;;;38.06;51.20;100442.03;5035727;28;20453;-86
2023/07/17 07:13:42;;;;;;;6.35;2.17;;;;;;;38.20;49.29;100438.88;5035738;28;20028;-86
2023/07/17 07:16:10;;;;;;;9.30;2.67;;;;;;;38.37;44.98;100443.97;5034365;28;20033;-85
2023/07/17 07:18:36;;;;;;;4.90;2.50;;;;;;;38.75;44.65;100446.88;5034382;28;20037;-87
2023/07/17 07:21:01;;;;;;;4.13;2.30;;;;;;;38.78;41.85;100448.47;5035977;28;20037;-87
2023/07/17 07:23:28;;;;;;;7.93;2.28;;;;;;;38.44;39.94;100439.78;5035682;28;20505;-87
2023/07/17 07:25:54;;;;;;;11.27;3.00;;;;;;;37.99;41.36;100446.25;5052464;28;20010;-86
2023/07/17 07:28:21;;;;;;;14.30;2.83;;;;;;;37.14;41.23;100448.72;5059742;28;20037;-85
2023/07/17 07:30:47;;;;;;;9.60;3.70;;;;;;;36.19;43.36;100456.38;5059506;28;20056;-85
2023/07/17 07:33:14;;;;;;;7.43;2.97;;;;;;;35.45;47.04;100448.31;5056317;28;20041;-84
2023/07/17 07:35:46;;;;;;;7.05;2.60;;;;;;;34.95;45.80;100451.72;5059434;28;20040;-85
2023/07/17 07:38:12;;;;;;;5.47;2.38;;;;;;;33.98;49.14;100437.56;5026876;28;20014;-85
2023/07/17 07:40:39;;;;;;;5.05;2.70;;;;;;;33.52;54.73;100460.19;5035578;28;20036;-87
2023/07/17 07:43:06;;;;;;;4.10;2.35;;;;;;;33.00;57.97;100446.78;5045596;28;20122;-87
2023/07/17 07:45:31;;;;;;;5.30;2.70;;;;;;;32.46;63.77;100464.16;5043888;28;20107;-86
2023/07/17 07:47:57;;;;;;;4.80;2.72;;;;;;;31.94;67.81;100446.81;5040318;28;20021;-86
2023/07/17 07:50:23;;;;;;;8.30;2.63;;;;;;;31.44;71.89;100462.78;5041694;28;20029;-88
2023/07/17 07:52:50;;;;;;;7.10;2.38;;;;;;;30.88;74.29;100463.47;5040495;28;20033;-88
2023/07/17 07:55:15;;;;;;;4.85;2.80;;;;;;;30.21;80.91;100469.81;5038751;28;20031;-87
2023/07/17 07:57:42;;;;;;;7.05;2.38;;;;;;;29.62;87.88;100464.78;5037233;28;20482;-87
2023/07/17 08:00:09;;;;;;;5.93;2.80;;;;;;;29.09;94.37;100472.59;5036371;28;20112;-87
2023/07/17 08:02:36;;;;;;;3.85;2.55;;;;;;;28.75;97.88;100479.53;5052892;28;20116;-88
2023/07/17 08:05:04;;;;;;;8.30;2.63;;;;;;;28.53;100.00;100480.75;5036382;28;20071;-88
2023/07/17 08:07:31;;;;;;;4.97;2.72;;;;;;;28.38;100.00;100475.13;5018932;28;20053;-88
2023/07/17 08:09:57;;;;;;;5.05;2.97;;;;;;;28.17;100.00;100475.69;5034582;28;20032;-88
2023/07/17 08:12:26;;;;;;;4.65;2.30;;;;;;;28.00;100.00;100469.91;5035429;28;20049;-87
2023/07/17 08:14:53;;;;;;;5.10;2.83;;;;;;;27.83;100.00;100482.50;5035360;28;20116;-88
2023/07/17 08:17:19;;;;;;;7.10;2.80;;;;;;;27.60;100.00;100467.41;5035612;28;20067;-88
2023/07/17 08:19:45;;;;;;;5.75;2.80;;;;;;;27.42;100.00;100475.47;5035080;28;20037;-87
2023/07/17 08:22:10;;;;;;;10.85;3.00;;;;;;;27.23;100.00;100465.72;5034262;28;20041;-88
2023/07/17 08:24:35;;;;;;;9.93;2.95;;;;;;;27.09;100.00;100463.19;5034123;28;20120;-89
2023/07/17 08:27:01;;;;;;;5.05;2.78;;;;;;;26.90;100.00;100463.03;5035042;28;20046;-88
2023/07/17 08:29:27;;;;;;;4.97;2.78;;;;;;;26.79;100.00;100459.84;5035099;28;20037;-87
2023/07/17 08:31:54;;;;;;;13.73;3.13;;;;;;;26.68;100.00;100478.69;5034750;28;20037;-89
2023/07/17 08:34:20;;;;;;;5.68;2.50;;;;;;;26.51;100.00;100482.41;5035013;28;20078;-87
2023/07/17 08:36:46;;;;;;;8.73;2.72;;;;;;;26.41;100.00;100489.56;5038347;28;20041;-88
2023/07/17 08:39:15;;;;;;;4.65;2.90;;;;;;;26.36;100.00;100464.97;5057455;28;20016;-83
2023/07/17 08:41:44;;;;;;;8.00;2.72;;;;;;;26.25;100.00;100460.38;5057635;28;20132;-87
2023/07/17 08:44:13;;;;;;;9.93;3.30;;;;;;;26.18;100.00;100475.88;5042699;28;20120;-88
2023/07/17 08:46:47;;;;;;;6.13;2.70;;;;;;;26.17;100.00;100491.91;5017885;28;20084;-88
2023/07/17 08:49:22;;;;;;;7.47;3.00;;;;;;;26.22;100.00;100482.09;5033497;28;20056;-88
2023/07/17 08:51:49;;;;;;;5.32;2.90;;;;;;;26.40;100.00;100479.19;5033066;28;20032;-88
2023/07/17 08:54:18;;;;;;;4.35;2.97;;;;;;;26.74;100.00;100482.97;5034341;28;20367;-87
2023/07/17 08:56:45;;;;;;;6.28;2.90;;;;;;;27.21;100.00;100486.88;5033982;28;20394;-89
2023/07/17 08:59:13;;;;;;;7.22;2.95;;;;;;;27.68;100.00;100482.72;5033012;28;20057;-87
2023/07/17 09:01:39;;;;;;;19.95;4.63;;;;;;;28.22;100.00;100479.72;5035413;28;20104;-88
2023/07/17 09:04:05;;;;;;;16.27;4.32;;;;;;;28.43;100.00;100477.00;5033719;28;20029;-89
2023/07/17 09:06:33;;;;;;;7.55;3.05;;;;;;;28.54;100.00;100475.66;5017888;28;20068;-88
2023/07/17 09:09:00;;;;;;;5.55;2.97;;;;;;;28.65;100.00;100483.84;5035447;28;20087;-88
2023/07/17 09:11:26;;;;;;;15.10;3.60;;;;;;;28.70;100.00;100480.63;5017627;28;20129;-87
2023/07/17 09:13:52;;;;;;;8.68;3.00;;;;;;;28.64;100.00;100474.25;5035344;28;20057;-88
2023/07/17 09:16:22;;;;;;;9.20;3.22;;;;;;;28.50;100.00;100484.91;5035378;28;20029;-87
2023/07/17 09:18:57;;;;;;;8.93;3.13;;;;;;;28.28;100.00;100460.41;5033536;28;20425;-87
2023/07/17 09:21:23;;;;;;;10.60;3.33;;;;;;;28.30;100.00;100459.78;5034371;28;20021;-88
2023/07/17 09:23:55;;;;;;;4.70;2.67;;;;;;;28.35;100.00;100452.81;5017170;28;20045;-89
2023/07/17 09:26:24;;;;;;;5.70;3.17;;;;;;;28.53;100.00;100454.28;5033955;28;20033;-86
2023/07/17 09:28:55;;;;;;;6.50;2.65;;;;;;;28.74;100.00;100463.28;5034967;28;20029;-88
2023/07/17 09:31:27;;;;;;;;;;;;;;;28.95;100.00;100470.72;5034057;28;20017;-87
2023/07/17 09:33:55;;;;;;;7.75;2.72;;;;;;;29.00;96.24;100461.56;5034591;28;19909;-87
2023/07/17 09:36:21;;;;;;;6.82;2.50;;;;;;;29.20;97.27;100457.25;5034526;28;20148;-88
2023/07/17 09:38:54;;;;;;;5.65;3.25;;;;;;;29.70;91.53;100453.56;5034880;28;20435;-87
2023/07/17 09:41:25;;;;;;;4.50;2.75;;;;;;;30.12;89.54;100452.94;5033167;28;20024;-88
2023/07/17 09:43:57;;;;;;;9.18;3.28;;;;;;;30.53;86.44;100459.50;5016997;28;20107;-90
2023/07/17 09:46:28;;;;;;;6.63;2.97;;;;;;;30.75;83.56;100458.13;5037718;28;20025;-89
2023/07/17 09:48:55;;;;;;;6.40;2.55;;;;;;;30.84;82.73;100447.66;5039052;28;20017;-88
2023/07/17 09:51:21;;;;;;;5.45;2.20;;;;;;;30.88;76.01;100451.66;5038620;28;20159;-86
2023/07/17 09:53:48;;;;;;;4.72;2.55;;;;;;;30.88;76.90;100450.88;5037545;28;20029;-86
2023/07/17 09:56:23;;;;;;;7.47;2.90;;;;;;;31.02;77.34;100445.94;5038712;28;20048;-87
2023/07/17 09:58:51;;;;;;;5.78;2.78;;;;;;;31.21;76.76;100444.97;5037141;28;20025;-87
2023/07/17 10:01:19;;;;;;;7.55;2.92;;;;;;;31.28;74.24;100452.84;5037676;28;20383;-88
2023/07/17 10:03:47;;;;;;;12.25;2.55;;;;;;;31.35;71.15;100460.72;5037283;28;20044;-88
2023/07/17 10:06:17;;;;;;;4.93;2.45;;;;;;;31.60;70.31;100454.22;5021429;28;20409;-87
2023/07/17 10:08:46;;;;;;;3.35;2.42;;;;;;;31.85;68.27;100454.38;5037021;28;20025;-88
2023/07/17 10:11:14;;;;;;;6.35;2.72;;;;;;;32.00;69.52;100453.88;5035611;28;20128;-87
2023/07/17 10:13:45;;;;;;;5.18;2.75;;;;;;;32.18;56.91;100457.25;5036847;28;20487;-88
2023/07/17 10:16:18;;;;;;;5.78;2.58;;;;;;;32.34;52.77;100454.53;5020052;28;20033;-87
2023/07/17 10:18:50;;;;;;;5.85;3.22;;;;;;;32.42;48.88;100449.13;5035402;28;20477;-89
2023/07/17 10:21:19;;;;;;;7.93;2.78;;;;;;;32.52;50.76;100449.75;5035499;28;20484;-88
2023/07/17 10:23:48;;;;;;;8.30;3.20;;;;;;;32.59;50.16;100442.75;5018701;28;20033;-89
2023/07/17 10:26:18;;;;;;;4.07;2.75;;;;;;;32.59;47.03;100449.47;5035492;28;20029;-87
2023/07/17 10:28:49;;;;;;;6.15;3.00;;;;;;;32.50;48.88;100452.56;5035653;28;20091;-88
2023/07/17 10:31:19;;;;;;;5.90;2.88;;;;;;;32.43;46.65;100451.44;5035196;28;20033;-87
2023/07/17 10:33:58;;;;;;;4.30;3.10;;;;;;;32.28;47.71;100451.22;5035254;28;20021;-87
2023/07/17 10:36:43;;;;;;;4.90;2.65;;;;;;;32.31;49.42;100447.72;5035279;28;20029;-88
2023/07/17 10:39:19;;;;;;;6.50;2.85;;;;;;;32.22;51.04;100446.44;5035090;28;20389;-86
2023/07/17 10:41:49;;;;;;;5.75;2.70;;;;;;;32.10;47.37;100444.88;5036525;28;20026;-91
2023/07/17 10:44:37;;;;;;;6.07;2.58;;;;;;;32.11;48.82;100438.31;5036209;28;20030;-88
2023/07/17 10:47:04;;;;;;;4.45;2.75;;;;;;;32.14;56.38;100439.25;5034815;28;20032;-88
2023/07/17 10:49:30;;;;;;;4.35;2.97;;;;;;;32.25;59.03;100430.34;5035049;28;20033;-89
2023/07/17 10:51:57;;;;;;;4.80;2.58;;;;;;;32.36;54.83;100428.03;5036173;28;20097;-89
2023/07/17 10:54:27;;;;;;;3.38;2.53;;;;;;;32.38;56.35;100428.16;5036491;28;20018;-86
2023/07/17 10:56:54;;;;;;;14.90;3.38;;;;;;;32.24;50.20;100422.91;5035824;28;20022;-86
2023/07/17 10:59:21;;;;;;;13.73;3.70;;;;;;;31.90;51.26;100414.03;5034385;28;20033;-86
2023/07/17 11:01:48;;;;;;;5.78;3.38;;;;;;;31.29;54.66;100416.00;5036357;28;20037;-86
2023/07/17 11:04:13;;;;;;;5.85;2.70;;;;;;;31.01;59.62;100406.00;5034820;28;20022;-88
2023/07/17 11:06:38;;;;;;;7.38;3.30;;;;;;;30.73;65.83;100407.03;5035621;28;20033;-88
2023/07/17 11:09:05;;;;;;;6.97;3.15;;;;;;;30.63;62.36;100395.28;5035920;28;20037;-87
2023/07/17 11:11:32;;;;;;;8.18;3.65;;;;;;;30.59;60.67;100386.16;5035728;28;20048;-87
2023/07/17 11:13:58;;;;;;;4.70;3.38;;;;;;;30.53;61.24;100394.59;5036141;28;20042;-88
2023/07/17 11:16:25;;;;;;;7.03;2.80;;;;;;;30.45;64.17;100385.97;5018517;28;20471;-87
2023/07/17 11:18:54;;;;;;;8.23;3.05;;;;;;;30.34;66.21;100371.16;5036311;28;20030;-89
2023/07/17 11:21:25;;;;;;;3.53;2.72;;;;;;;30.36;65.77;100380.16;5035664;28;20049;-86